Terminal Aerodrome Forecast
Issued by NWS Cleveland, OH

Home | Current Version | Previous Version | Text Only | Print | Product List | Glossary Off
Versions: 1 2 3 4 5 6 7 8 9 10 11 12 13 14 15 16 17 18 19 20 21 22 23

000
FTUS41 KCLE 240524
TAFCAK
TAF
KCAK 240524Z 2406/2506 14008KT P6SM VCSH OVC050
     FM241000 12008KT P6SM OVC070
     FM241800 12010KT P6SM -SHRA OVC035
     FM242100 13012G20KT 5SM -SHRA OVC025
     FM250000 13012G20KT 3SM -SHRA OVC008=

USA.gov is the U.S. government's official web portal to all federal, state and local government web resources and services.